createdAt,value
2023-04-12T00:00:11.882Z,99695.97
2023-04-12T00:02:42.140Z,99693.16
2023-04-12T00:05:11.516Z,99682.69
2023-04-12T00:07:40.336Z,99669.13
2023-04-12T00:10:10.473Z,99674.19
2023-04-12T00:12:41.077Z,99676.22
2023-04-12T00:15:10.861Z,99661.22
2023-04-12T00:17:39.281Z,99658.16
2023-04-12T00:20:12.251Z,99648.44
2023-04-12T00:22:41.520Z,99651.13
2023-04-12T00:25:10.566Z,99643.97
2023-04-12T00:27:40.640Z,99651.50
2023-04-12T00:30:10.134Z,99641.34
2023-04-12T00:32:38.528Z,99641.72
2023-04-12T00:35:08.397Z,99646.84
2023-04-12T00:37:38.650Z,99646.66
2023-04-12T00:40:11.615Z,99639.81
2023-04-12T00:42:41.618Z,99629.84
2023-04-12T00:45:11.273Z,99631.66
2023-04-12T00:47:41.101Z,99634.09
2023-04-12T00:50:11.275Z,99634.75
2023-04-12T00:52:41.617Z,99628.44
2023-04-12T00:55:10.963Z,99641.88
2023-04-12T00:57:41.766Z,99638.00
2023-04-12T01:00:13.529Z,99665.00
2023-04-12T01:02:47.724Z,99649.56
2023-04-12T01:05:22.148Z,99642.25
2023-04-12T01:08:04.975Z,99641.25
2023-04-12T01:10:43.869Z,99638.16
2023-04-12T01:13:29.853Z,99639.19
2023-04-12T01:16:05.832Z,99631.28
2023-04-12T01:18:40.827Z,99629.25
2023-04-12T01:21:18.609Z,99621.53
2023-04-12T01:24:04.957Z,99627.13
2023-04-12T01:26:40.781Z,99608.53
2023-04-12T01:29:13.510Z,99611.56
2023-04-12T01:31:46.921Z,99595.47
2023-04-12T01:34:16.627Z,99592.44
2023-04-12T01:36:49.481Z,99598.59
2023-04-12T01:39:18.017Z,99591.00
2023-04-12T01:41:48.964Z,99588.00
2023-04-12T01:44:20.073Z,99587.34
2023-04-12T01:46:49.757Z,99584.53
2023-04-12T01:49:20.250Z,99569.47
2023-04-12T01:51:56.012Z,99562.59
2023-04-12T01:54:29.346Z,99553.63
2023-04-12T01:57:01.913Z,99557.50
2023-04-12T01:59:37.851Z,99555.66
2023-04-12T02:02:07.226Z,99554.03
2023-04-12T02:04:37.074Z,99549.19
2023-04-12T02:07:05.510Z,99550.75
2023-04-12T02:09:39.376Z,99550.34
2023-04-12T02:12:08.612Z,99542.84
2023-04-12T02:14:39.278Z,99540.81
2023-04-12T02:17:08.649Z,99544.25
2023-04-12T02:19:38.014Z,99533.72
2023-04-12T02:22:08.279Z,99530.06
2023-04-12T02:24:36.681Z,99543.44
2023-04-12T02:27:06.070Z,99540.53
2023-04-12T02:29:35.536Z,99538.53
2023-04-12T02:32:06.080Z,99528.81
2023-04-12T02:34:36.629Z,99520.88
2023-04-12T02:37:17.746Z,99525.97
2023-04-12T02:39:46.241Z,99509.16
2023-04-12T02:42:14.902Z,99496.13
2023-04-12T02:44:47.835Z,99492.66
2023-04-12T02:47:18.378Z,99483.84
2023-04-12T02:49:49.676Z,99485.44
2023-04-12T02:52:20.245Z,99474.88
2023-04-12T02:55:22.028Z,99476.59
2023-04-12T02:57:50.657Z,99473.34
2023-04-12T03:00:20.241Z,99478.47
2023-04-12T03:02:52.865Z,99472.34
2023-04-12T03:05:27.439Z,99452.50
2023-04-12T03:07:56.419Z,99453.91
2023-04-12T03:10:37.383Z,99448.81
2023-04-12T03:13:05.976Z,99455.16
2023-04-12T03:15:37.439Z,99447.72
2023-04-12T03:18:07.696Z,99439.22
2023-04-12T03:20:47.462Z,99438.78
2023-04-12T03:23:16.967Z,99440.22
2023-04-12T03:25:49.126Z,99431.91
2023-04-12T03:28:31.218Z,99422.31
2023-04-12T03:31:00.798Z,99423.69
2023-04-12T03:33:41.055Z,99423.25
2023-04-12T03:36:19.043Z,99413.56
2023-04-12T03:38:52.786Z,99410.75
2023-04-12T03:41:23.520Z,99407.34
2023-04-12T03:43:52.406Z,99397.34
2023-04-12T03:46:20.972Z,99392.66
2023-04-12T03:48:57.364Z,99384.53
2023-04-12T03:51:30.690Z,99383.16
2023-04-12T03:54:04.818Z,99377.47
2023-04-12T03:56:47.969Z,99377.38
2023-04-12T03:59:24.279Z,99367.38
2023-04-12T04:01:52.699Z,99357.97
2023-04-12T04:04:24.358Z,99356.47
2023-04-12T04:06:57.392Z,99354.84
2023-04-12T04:09:27.737Z,99355.69
2023-04-12T04:11:56.649Z,99343.44
2023-04-12T04:14:25.898Z,99341.75
2023-04-12T04:16:55.280Z,99339.09
2023-04-12T04:19:25.191Z,99335.66
2023-04-12T04:21:56.302Z,99331.69
2023-04-12T04:24:25.174Z,99326.69
2023-04-12T04:26:56.317Z,99310.34
2023-04-12T04:29:29.174Z,99310.47
2023-04-12T04:31:58.853Z,99302.00
2023-04-12T04:34:29.493Z,99293.09
2023-04-12T04:37:08.146Z,99289.00
2023-04-12T04:39:37.430Z,99286.41
2023-04-12T04:42:06.647Z,99284.53
2023-04-12T04:44:42.687Z,99276.81
2023-04-12T04:47:12.543Z,99267.28
2023-04-12T04:49:43.272Z,99272.78
2023-04-12T04:52:29.688Z,99266.88
2023-04-12T04:55:06.404Z,99258.84
2023-04-12T04:57:38.207Z,99252.97
2023-04-12T05:00:11.800Z,99254.31
2023-04-12T05:02:45.898Z,99241.81
2023-04-12T05:05:23.207Z,99246.00
2023-04-12T05:07:56.680Z,99236.19
2023-04-12T05:10:25.839Z,99233.88
2023-04-12T05:12:54.766Z,99226.00
2023-04-12T05:15:25.409Z,99220.19
2023-04-12T05:17:53.865Z,99210.22
2023-04-12T05:20:23.782Z,99205.09
2023-04-12T05:22:52.171Z,99203.84
2023-04-12T05:25:21.565Z,99207.19
2023-04-12T05:27:57.255Z,99196.88
2023-04-12T05:30:26.862Z,99191.88
2023-04-12T05:32:55.333Z,99187.81
2023-04-12T05:35:25.103Z,99191.06
2023-04-12T05:37:59.347Z,99189.47
2023-04-12T05:40:27.731Z,99186.81
2023-04-12T05:42:56.858Z,99175.47
2023-04-12T05:45:26.441Z,99167.75
2023-04-12T05:47:56.246Z,99152.53
2023-04-12T05:50:26.388Z,99152.75
2023-04-12T05:52:56.083Z,99151.31
2023-04-12T05:55:29.231Z,99142.25
2023-04-12T05:57:58.638Z,99141.81
2023-04-12T06:00:28.968Z,99135.00
2023-04-12T06:02:58.859Z,99134.75
2023-04-12T06:05:28.753Z,99128.09
2023-04-12T06:07:59.963Z,99128.72
2023-04-12T06:10:28.505Z,99117.22
2023-04-12T06:12:56.934Z,99115.38
2023-04-12T06:15:25.322Z,99102.13
2023-04-12T06:17:56.651Z,99105.56
2023-04-12T06:20:24.988Z,99094.06
2023-04-12T06:22:55.212Z,99092.84
2023-04-12T06:25:24.175Z,99094.13
2023-04-12T06:27:53.581Z,99078.34
2023-04-12T06:30:23.923Z,99075.13
2023-04-12T06:32:54.616Z,99076.16
2023-04-12T06:35:24.201Z,99072.06
2023-04-12T06:37:54.344Z,99073.13
2023-04-12T06:40:22.943Z,99064.66
2023-04-12T06:42:51.327Z,99068.22
2023-04-12T06:45:23.895Z,99068.84
2023-04-12T06:47:52.302Z,99062.41
2023-04-12T06:50:20.634Z,99061.44
2023-04-12T06:52:49.036Z,99051.09
2023-04-12T06:55:19.731Z,99046.00
2023-04-12T06:57:49.132Z,99047.22
2023-04-12T07:00:18.191Z,99042.41
2023-04-12T07:02:46.773Z,99037.94
2023-04-12T07:05:15.806Z,99040.03
2023-04-12T07:07:44.224Z,99030.91
2023-04-12T07:10:13.063Z,99028.50
2023-04-12T07:12:42.882Z,99024.28
2023-04-12T07:15:12.221Z,99008.91
2023-04-12T07:17:40.646Z,99011.75
2023-04-12T07:20:10.045Z,99005.69
2023-04-12T07:22:38.364Z,98998.00
2023-04-12T07:25:10.850Z,98999.22
2023-04-12T07:27:42.391Z,98998.00
2023-04-12T07:30:13.978Z,98976.97
2023-04-12T07:32:42.388Z,98973.78
2023-04-12T07:35:11.410Z,98956.16
2023-04-12T07:37:39.721Z,98967.13
2023-04-12T07:40:09.573Z,98949.53
2023-04-12T07:42:37.919Z,98948.72
2023-04-12T07:45:07.478Z,98942.03
2023-04-12T07:47:37.268Z,98931.16
2023-04-12T07:50:07.413Z,98942.25
2023-04-12T07:52:35.971Z,98931.34
2023-04-12T07:55:04.538Z,98930.53
2023-04-12T07:57:34.183Z,98929.13
2023-04-12T08:00:02.728Z,98929.13
2023-04-12T08:02:42.912Z,98930.53
2023-04-12T08:05:11.847Z,98929.34
2023-04-12T08:07:40.276Z,98921.84
2023-04-12T08:10:10.249Z,98921.44
2023-04-12T08:12:38.609Z,98910.31
2023-04-12T08:15:08.379Z,98913.34
2023-04-12T08:17:36.709Z,98908.91
2023-04-12T08:20:08.051Z,98911.72
2023-04-12T08:22:36.684Z,98902.84
2023-04-12T08:25:05.577Z,98901.03
2023-04-12T08:27:33.858Z,98893.75
2023-04-12T08:30:02.199Z,98901.03
2023-04-12T08:32:30.854Z,98892.31
2023-04-12T08:35:00.213Z,98887.25
2023-04-12T08:37:29.903Z,98890.50
2023-04-12T08:39:59.827Z,98888.28
2023-04-12T08:42:31.811Z,98884.03
2023-04-12T08:45:00.355Z,98885.03
2023-04-12T08:47:28.819Z,98876.53
2023-04-12T08:49:57.775Z,98867.44
2023-04-12T08:52:26.122Z,98865.78
2023-04-12T08:54:56.807Z,98857.72
2023-04-12T08:57:25.552Z,98852.47
2023-04-12T08:59:55.820Z,98858.56
2023-04-12T09:02:24.260Z,98853.66
2023-04-12T09:04:54.073Z,98847.41
2023-04-12T09:07:27.739Z,98837.09
2023-04-12T09:09:59.478Z,98843.50
2023-04-12T09:12:27.988Z,98837.06
2023-04-12T09:15:12.714Z,98838.47
2023-04-12T09:17:42.696Z,98819.28
2023-04-12T09:20:25.798Z,98815.44
2023-04-12T09:22:57.162Z,98818.06
2023-04-12T09:25:41.356Z,98808.78
2023-04-12T09:28:26.927Z,98802.09
2023-04-12T09:30:56.312Z,98800.84
2023-04-12T09:33:35.503Z,98797.78
2023-04-12T09:36:05.770Z,98786.63
2023-04-12T09:38:36.911Z,98781.19
2023-04-12T09:41:23.496Z,98777.34
2023-04-12T09:43:54.678Z,98777.53
2023-04-12T09:46:23.996Z,98774.50
2023-04-12T09:48:54.256Z,98772.03
2023-04-12T09:51:28.969Z,98781.94
2023-04-12T09:54:01.588Z,98768.56
2023-04-12T09:56:33.351Z,98756.03
2023-04-12T09:59:04.387Z,98755.94
2023-04-12T10:01:37.590Z,98753.31
2023-04-12T10:04:08.905Z,98746.63
2023-04-12T10:06:38.208Z,98751.44
2023-04-12T10:09:08.695Z,98744.84
2023-04-12T10:11:40.564Z,98736.72
2023-04-12T10:14:09.922Z,98730.16
2023-04-12T10:16:40.800Z,98733.56
2023-04-12T10:19:10.327Z,98727.66
2023-04-12T10:21:39.785Z,98724.09
2023-04-12T10:24:08.734Z,98723.88
2023-04-12T10:26:43.773Z,98713.22
2023-04-12T10:29:29.538Z,98715.06
2023-04-12T10:31:59.650Z,98714.69
2023-04-12T10:34:31.828Z,98713.53
2023-04-12T10:37:01.672Z,98709.06
2023-04-12T10:39:42.267Z,98709.25
2023-04-12T10:42:24.953Z,98707.09
2023-04-12T10:44:58.665Z,98708.59
2023-04-12T10:47:59.063Z,98696.47
2023-04-12T10:50:30.174Z,98690.19
2023-04-12T10:53:26.685Z,98689.28
2023-04-12T10:55:55.204Z,98696.41
2023-04-12T10:59:01.298Z,98692.66
2023-04-12T11:01:42.047Z,98695.06
2023-04-12T11:04:20.420Z,98682.94
2023-04-12T11:07:15.266Z,98688.88
2023-04-12T11:10:02.734Z,98678.38
2023-04-12T11:12:36.247Z,98679.63
2023-04-12T11:15:07.291Z,98668.69
2023-04-12T11:17:59.737Z,98662.47
2023-04-12T11:20:28.676Z,98670.59
2023-04-12T11:22:57.759Z,98659.28
2023-04-12T11:25:27.316Z,98662.75
2023-04-12T11:27:57.101Z,98663.13
2023-04-12T11:30:30.534Z,98667.28
2023-04-12T11:32:58.921Z,98652.81
2023-04-12T11:35:30.530Z,98646.94
2023-04-12T11:37:59.364Z,98646.19
2023-04-12T11:40:28.521Z,98639.16
2023-04-12T11:42:57.876Z,98645.03
2023-04-12T11:45:26.738Z,98637.22
2023-04-12T11:47:58.262Z,98625.31
2023-04-12T11:50:31.295Z,98636.00
2023-04-12T11:53:12.592Z,98627.81
2023-04-12T11:55:41.142Z,98623.81
2023-04-12T11:58:09.556Z,98621.72
2023-04-12T12:00:38.453Z,98616.25
2023-04-12T12:03:08.935Z,98612.22
2023-04-12T12:05:39.256Z,98618.31
2023-04-12T12:08:08.868Z,98616.25
2023-04-12T12:10:49.096Z,98610.13
2023-04-12T12:13:27.003Z,98608.19
2023-04-12T12:15:55.369Z,98603.81
2023-04-12T12:18:29.015Z,98601.41
2023-04-12T12:20:57.440Z,98597.50
2023-04-12T12:23:31.150Z,98596.56
2023-04-12T12:26:14.297Z,98596.22
2023-04-12T12:28:52.463Z,98595.88
2023-04-12T12:31:23.929Z,98594.13
2023-04-12T12:33:57.876Z,98598.31
2023-04-12T12:36:38.871Z,98590.50
2023-04-12T12:39:11.127Z,98593.03
2023-04-12T12:41:40.734Z,98591.66
2023-04-12T12:44:11.366Z,98591.41
2023-04-12T12:46:53.452Z,98583.94
2023-04-12T12:49:26.789Z,98589.47
2023-04-12T12:51:55.431Z,98585.91
2023-04-12T12:54:39.587Z,98588.00
2023-04-12T12:57:09.883Z,98590.19
2023-04-12T12:59:38.235Z,98588.50
2023-04-12T13:02:07.430Z,98574.88
2023-04-12T13:04:37.758Z,98582.25
2023-04-12T13:07:06.394Z,98579.88
2023-04-12T13:09:34.832Z,98588.47
2023-04-12T13:12:03.211Z,98582.84
2023-04-12T13:14:31.598Z,98584.94
2023-04-12T13:17:00.170Z,98588.69
2023-04-12T13:19:28.482Z,98586.06
2023-04-12T13:21:58.236Z,98593.06
2023-04-12T13:24:26.802Z,98590.00
2023-04-12T13:26:55.197Z,98581.97
2023-04-12T13:29:23.496Z,98585.59
2023-04-12T13:31:51.949Z,98576.75
2023-04-12T13:34:20.300Z,98563.06
2023-04-12T13:36:48.689Z,98573.31
2023-04-12T13:39:18.582Z,98574.63
2023-04-12T13:41:46.959Z,98578.72
2023-04-12T13:44:15.427Z,98566.88
2023-04-12T13:46:43.784Z,98567.00
2023-04-12T13:49:12.674Z,98561.69
2023-04-12T13:51:41.000Z,98561.56
2023-04-12T13:54:09.386Z,98559.34
2023-04-12T13:56:42.163Z,98550.31
2023-04-12T13:59:12.367Z,98568.38
2023-04-12T14:01:42.873Z,98557.44
2023-04-12T14:04:11.513Z,98552.59
2023-04-12T14:06:40.086Z,98557.78
2023-04-12T14:09:08.928Z,98557.69
2023-04-12T14:11:49.095Z,98578.13
2023-04-12T14:14:17.502Z,98568.38
2023-04-12T14:16:46.698Z,98566.28
2023-04-12T14:19:15.186Z,98562.72
2023-04-12T14:21:46.215Z,98550.31
2023-04-12T14:24:16.217Z,98526.97
2023-04-12T14:26:45.441Z,98541.50
2023-04-12T14:29:15.494Z,98551.84
2023-04-12T14:31:43.959Z,98564.50
2023-04-12T14:34:13.548Z,98551.53
2023-04-12T14:36:44.395Z,98546.97
2023-04-12T14:39:14.023Z,98553.75
2023-04-12T14:41:43.519Z,98562.97
2023-04-12T14:44:12.062Z,98562.41
2023-04-12T14:46:42.041Z,98575.88
2023-04-12T14:49:10.441Z,98568.75
2023-04-12T14:51:38.787Z,98576.06
2023-04-12T14:54:07.213Z,98578.81
2023-04-12T14:56:43.288Z,98566.41
2023-04-12T14:59:15.761Z,98564.69
2023-04-12T15:01:45.734Z,98582.28
2023-04-12T15:04:14.501Z,98588.59
2023-04-12T15:06:44.809Z,98570.91
2023-04-12T15:09:15.754Z,98579.50
2023-04-12T15:11:49.522Z,98575.03
2023-04-12T15:14:20.493Z,98573.66
2023-04-12T15:16:50.608Z,98578.78
2023-04-12T15:19:22.547Z,98578.56
2023-04-12T15:21:52.429Z,98593.03
2023-04-12T15:24:22.350Z,98584.59
2023-04-12T15:26:52.609Z,98582.44
2023-04-12T15:29:22.317Z,98584.03
2023-04-12T15:31:52.349Z,98590.13
2023-04-12T15:34:23.217Z,98590.38
2023-04-12T15:36:52.052Z,98589.81
2023-04-12T15:39:21.259Z,98595.66
2023-04-12T15:41:49.714Z,98598.31
2023-04-12T15:44:18.092Z,98593.25
2023-04-12T15:46:56.258Z,98597.75
2023-04-12T15:49:35.608Z,98582.91
2023-04-12T15:52:04.943Z,98598.69
2023-04-12T15:54:33.541Z,98594.44
2023-04-12T15:57:09.434Z,98609.25
2023-04-12T15:59:38.730Z,98604.41
2023-04-12T16:02:10.326Z,98620.28
2023-04-12T16:04:40.758Z,98613.72
2023-04-12T16:07:09.330Z,98623.03
2023-04-12T16:09:40.126Z,98610.84
2023-04-12T16:12:08.545Z,98615.41
2023-04-12T16:14:37.124Z,98632.56
2023-04-12T16:17:06.148Z,98622.34
2023-04-12T16:19:34.493Z,98624.19
2023-04-12T16:22:04.577Z,98623.50
2023-04-12T16:24:32.964Z,98621.16
2023-04-12T16:27:01.330Z,98626.78
2023-04-12T16:29:31.572Z,98625.28
2023-04-12T16:31:59.954Z,98627.69
2023-04-12T16:34:28.352Z,98626.41
2023-04-12T16:36:57.600Z,98624.34
2023-04-12T16:39:29.204Z,98624.78
2023-04-12T16:41:57.745Z,98625.03
2023-04-12T16:44:26.087Z,98622.41
2023-04-12T16:46:55.202Z,98624.56
2023-04-12T16:49:23.645Z,98623.53
2023-04-12T16:51:52.481Z,98620.56
2023-04-12T16:54:21.810Z,98615.16
2023-04-12T16:56:51.616Z,98615.31
2023-04-12T16:59:20.074Z,98610.47
2023-04-12T17:01:48.586Z,98609.34
2023-04-12T17:04:17.283Z,98605.59
2023-04-12T17:06:45.769Z,98602.38
2023-04-12T17:09:14.155Z,98599.63
2023-04-12T17:11:42.605Z,98610.41
2023-04-12T17:14:12.422Z,98613.31
2023-04-12T17:16:41.014Z,98614.91
2023-04-12T17:19:10.588Z,98620.22
2023-04-12T17:21:42.273Z,98615.38
2023-04-12T17:24:10.931Z,98618.72
2023-04-12T17:26:40.323Z,98630.56
2023-04-12T17:29:09.298Z,98629.31
2023-04-12T17:31:39.482Z,98634.44
2023-04-12T17:34:08.204Z,98642.38
2023-04-12T17:36:38.196Z,98634.13
2023-04-12T17:39:06.538Z,98642.25
2023-04-12T17:41:34.936Z,98629.38
2023-04-12T17:44:03.283Z,98641.22
2023-04-12T17:46:31.897Z,98647.91
2023-04-12T17:49:04.118Z,98653.22
2023-04-12T17:51:33.326Z,98658.94
2023-04-12T17:54:03.598Z,98665.06
2023-04-12T17:56:31.986Z,98666.19
2023-04-12T17:59:02.024Z,98669.19
2023-04-12T18:01:31.664Z,98672.75
2023-04-12T18:04:02.789Z,98681.38
2023-04-12T18:06:31.673Z,98688.16
2023-04-12T18:09:00.034Z,98689.00
2023-04-12T18:11:28.592Z,98690.97
2023-04-12T18:13:57.374Z,98700.97
2023-04-12T18:16:26.620Z,98686.69
2023-04-12T18:18:55.373Z,98697.00
2023-04-12T18:21:25.171Z,98704.97
2023-04-12T18:23:53.555Z,98709.63
2023-04-12T18:26:23.102Z,98715.50
2023-04-12T18:28:52.006Z,98715.72
2023-04-12T18:31:21.462Z,98734.00
2023-04-12T18:33:51.405Z,98728.47
2023-04-12T18:36:19.738Z,98735.47
2023-04-12T18:38:49.453Z,98737.53
2023-04-12T18:41:17.803Z,98733.50
2023-04-12T18:43:46.612Z,98741.91
2023-04-12T18:46:17.886Z,98750.63
2023-04-12T18:48:48.013Z,98754.66
2023-04-12T18:51:16.969Z,98760.19
2023-04-12T18:53:45.419Z,98774.38
2023-04-12T18:56:18.515Z,98776.69
2023-04-12T18:58:55.196Z,98810.34
2023-04-12T19:01:25.272Z,98832.69
2023-04-12T19:03:54.210Z,98847.69
2023-04-12T19:06:22.715Z,98879.97
2023-04-12T19:08:51.230Z,98900.63
2023-04-12T19:11:21.354Z,98917.19
2023-04-12T19:13:49.731Z,98927.38
2023-04-12T19:16:18.239Z,98927.22
2023-04-12T19:18:46.984Z,98929.91
2023-04-12T19:21:15.552Z,98922.69
2023-04-12T19:23:44.254Z,98926.72
2023-04-12T19:26:12.974Z,98933.38
2023-04-12T19:28:43.354Z,98925.44
2023-04-12T19:31:12.168Z,98911.56
2023-04-12T19:33:42.166Z,98903.31
2023-04-12T19:36:11.752Z,98901.66
2023-04-12T19:38:41.439Z,98902.84
2023-04-12T19:41:09.860Z,98898.94
2023-04-12T19:43:38.284Z,98889.19
2023-04-12T19:46:08.539Z,98897.09
2023-04-12T19:48:37.818Z,98896.09
2023-04-12T19:51:07.380Z,98895.50
2023-04-12T19:53:35.730Z,98898.84
2023-04-12T19:56:05.793Z,98885.50
2023-04-12T19:58:34.604Z,98886.13
2023-04-12T20:01:03.377Z,98891.72
2023-04-12T20:03:33.222Z,98897.34
2023-04-12T20:06:04.382Z,98895.31
2023-04-12T20:08:33.152Z,98884.25
2023-04-12T20:11:02.524Z,98888.66
2023-04-12T20:13:31.472Z,98872.88
2023-04-12T20:16:01.258Z,98874.94
2023-04-12T20:18:29.710Z,98873.09
2023-04-12T20:20:59.450Z,98871.28
2023-04-12T20:23:27.918Z,98882.88
2023-04-12T20:25:56.302Z,98881.81
2023-04-12T20:28:25.766Z,98893.22
2023-04-12T20:30:54.210Z,98904.19
2023-04-12T20:33:22.715Z,98907.63
2023-04-12T20:35:51.938Z,98907.84
2023-04-12T20:38:21.663Z,98922.41
2023-04-12T20:40:50.055Z,98910.66
2023-04-12T20:43:18.422Z,98912.88
2023-04-12T20:45:48.692Z,98915.69
2023-04-12T20:48:17.200Z,98920.00
2023-04-12T20:50:46.011Z,98927.03
2023-04-12T20:53:15.856Z,98936.31
2023-04-12T20:55:46.582Z,98920.19
2023-04-12T20:58:16.368Z,98936.34
2023-04-12T21:00:44.797Z,98935.34
2023-04-12T21:03:13.151Z,98936.16
2023-04-12T21:05:41.992Z,98962.47
2023-04-12T21:08:10.298Z,98949.31
2023-04-12T21:10:38.681Z,98967.34
2023-04-12T21:13:08.335Z,98963.31
2023-04-12T21:15:36.745Z,98971.63
2023-04-12T21:18:05.285Z,98971.78
2023-04-12T21:20:35.570Z,98974.22
2023-04-12T21:23:07.154Z,98970.19
2023-04-12T21:25:35.795Z,98969.38
2023-04-12T21:28:04.404Z,98960.69
2023-04-12T21:30:34.369Z,98971.59
2023-04-12T21:33:04.358Z,98969.56
2023-04-12T21:35:32.968Z,98976.44
2023-04-12T21:38:01.459Z,98990.78
2023-04-12T21:40:29.837Z,98982.72
2023-04-12T21:42:58.207Z,98984.34
2023-04-12T21:45:27.433Z,98981.28
2023-04-12T21:47:57.258Z,98989.56
2023-04-12T21:50:25.866Z,98983.69
2023-04-12T21:52:55.683Z,98991.56
2023-04-12T21:55:24.347Z,98997.66
2023-04-12T21:57:52.990Z,98994.81
2023-04-12T22:00:21.715Z,99004.53
2023-04-12T22:02:50.241Z,99000.06
2023-04-12T22:05:20.192Z,99003.28
2023-04-12T22:07:48.565Z,98991.97
2023-04-12T22:10:18.770Z,99006.34
2023-04-12T22:12:50.193Z,99009.38
2023-04-12T22:15:18.835Z,99009.16
2023-04-12T22:17:47.816Z,99004.31
2023-04-12T22:20:16.308Z,98999.03
2023-04-12T22:22:46.112Z,98992.38
2023-04-12T22:25:15.717Z,99008.53
2023-04-12T22:27:49.889Z,99010.56
2023-04-12T22:30:18.238Z,98994.19
2023-04-12T22:32:46.656Z,98996.81
2023-04-12T22:35:15.910Z,98999.06
2023-04-12T22:37:46.095Z,98995.63
2023-04-12T22:40:14.762Z,99007.34
2023-04-12T22:42:46.588Z,98996.81
2023-04-12T22:45:16.113Z,99000.28
2023-04-12T22:47:45.055Z,99003.72
2023-04-12T22:50:14.328Z,99005.13
2023-04-12T22:52:42.801Z,99010.56
2023-04-12T22:55:14.265Z,99007.13
2023-04-12T22:57:42.676Z,98998.03
2023-04-12T23:00:17.078Z,98998.44
2023-04-12T23:02:47.781Z,98995.41
2023-04-12T23:05:16.594Z,99000.06
2023-04-12T23:07:45.062Z,99000.28
2023-04-12T23:10:14.790Z,99003.50
2023-04-12T23:12:43.445Z,99005.72
2023-04-12T23:15:12.754Z,98981.22
2023-04-12T23:17:41.143Z,98994.81
2023-04-12T23:20:14.853Z,98991.16
2023-04-12T23:22:57.799Z,98988.34
2023-04-12T23:25:39.027Z,98996.63
2023-04-12T23:28:12.847Z,98994.00
2023-04-12T23:30:44.673Z,98987.91
2023-04-12T23:33:13.086Z,98990.34
2023-04-12T23:35:42.238Z,98983.88
2023-04-12T23:38:15.759Z,98987.91
2023-04-12T23:40:47.624Z,98989.31
2023-04-12T23:43:16.040Z,98983.03
2023-04-12T23:45:44.476Z,98977.59
2023-04-12T23:48:13.021Z,98981.81
2023-04-12T23:50:41.401Z,98959.97
2023-04-12T23:53:09.853Z,98974.53
2023-04-12T23:55:38.260Z,98979.78
2023-04-12T23:58:08.457Z,98979.78
